createdAt,value
2017-07-26T00:00:27.871Z,988.81
2017-07-26T00:01:27.893Z,988.83
2017-07-26T00:02:27.916Z,988.87
2017-07-26T00:03:27.938Z,988.86
2017-07-26T00:04:27.960Z,988.86
2017-07-26T00:05:27.981Z,988.86
2017-07-26T00:06:28.004Z,988.85
2017-07-26T00:07:28.026Z,988.85
2017-07-26T00:08:28.048Z,988.84
2017-07-26T00:09:28.075Z,988.81
2017-07-26T00:10:28.311Z,988.81
2017-07-26T00:11:28.118Z,988.81
2017-07-26T00:12:28.352Z,988.79
2017-07-26T00:13:28.177Z,988.79
2017-07-26T00:14:28.184Z,988.83
2017-07-26T00:15:28.208Z,988.79
2017-07-26T00:16:28.229Z,988.79
2017-07-26T00:17:28.254Z,988.79
2017-07-26T00:18:28.273Z,988.77
2017-07-26T00:19:28.295Z,988.75
2017-07-26T00:20:28.318Z,988.74
2017-07-26T00:21:28.339Z,988.69
2017-07-26T00:22:28.369Z,988.74
2017-07-26T00:23:28.386Z,988.71
2017-07-26T00:24:28.437Z,988.76
2017-07-26T00:25:28.431Z,988.75
2017-07-26T00:26:28.458Z,988.76
2017-07-26T00:27:28.474Z,988.75
2017-07-26T00:28:28.498Z,988.77
2017-07-26T00:29:28.519Z,988.75
2017-07-26T00:30:28.544Z,988.77
2017-07-26T00:31:28.564Z,988.75
2017-07-26T00:32:28.588Z,988.78
2017-07-26T00:33:28.611Z,988.76
2017-07-26T00:34:28.631Z,988.74
2017-07-26T00:35:28.653Z,988.77
2017-07-26T00:36:28.785Z,988.8
2017-07-26T00:37:28.702Z,988.79
2017-07-26T00:38:28.720Z,988.78
2017-07-26T00:39:28.745Z,988.77
2017-07-26T00:40:28.765Z,988.76
2017-07-26T00:41:28.787Z,988.71
2017-07-26T00:42:28.816Z,988.75
2017-07-26T00:43:28.840Z,988.73
2017-07-26T00:44:28.858Z,988.77
2017-07-26T00:45:28.878Z,988.74
2017-07-26T00:46:28.901Z,988.75
2017-07-26T00:47:28.926Z,988.76
2017-07-26T00:48:28.948Z,988.74
2017-07-26T00:49:28.970Z,988.76
2017-07-26T00:50:28.993Z,988.79
2017-07-26T00:51:29.014Z,988.77
2017-07-26T00:52:29.038Z,988.74
2017-07-26T00:53:29.059Z,988.77
2017-07-26T00:54:29.082Z,988.84
2017-07-26T00:55:29.105Z,988.81
2017-07-26T00:56:29.127Z,988.82
2017-07-26T00:57:29.150Z,988.82
2017-07-26T00:58:29.172Z,988.8
2017-07-26T00:59:29.194Z,988.76
2017-07-26T01:00:29.216Z,988.77
2017-07-26T01:01:29.238Z,988.74
2017-07-26T01:02:29.263Z,988.74
2017-07-26T01:03:29.282Z,988.74
2017-07-26T01:04:29.305Z,988.76
2017-07-26T01:05:29.327Z,988.78
2017-07-26T01:06:29.349Z,988.7
2017-07-26T01:07:29.369Z,988.74
2017-07-26T01:08:29.394Z,988.74
2017-07-26T01:09:29.418Z,988.73
2017-07-26T01:10:29.438Z,988.71
2017-07-26T01:11:29.461Z,988.71
2017-07-26T01:12:29.486Z,988.71
2017-07-26T01:13:29.505Z,988.71
2017-07-26T01:14:29.528Z,988.71
2017-07-26T01:15:29.549Z,988.69
2017-07-26T01:16:29.572Z,988.68
2017-07-26T01:17:29.602Z,988.66
2017-07-26T01:18:29.619Z,988.65
2017-07-26T01:19:29.642Z,988.69
2017-07-26T01:20:29.664Z,988.64
2017-07-26T01:21:29.684Z,988.63
2017-07-26T01:22:29.707Z,988.63
2017-07-26T01:23:29.834Z,988.63
2017-07-26T01:24:29.752Z,988.58
2017-07-26T01:25:29.774Z,988.58
2017-07-26T01:26:29.795Z,988.57
2017-07-26T01:27:29.819Z,988.6
2017-07-26T01:28:29.840Z,988.61
2017-07-26T01:29:29.861Z,988.58
2017-07-26T01:30:29.884Z,988.52
2017-07-26T01:31:29.908Z,988.56
2017-07-26T01:32:29.944Z,988.53
2017-07-26T01:33:29.952Z,988.53
2017-07-26T01:34:29.974Z,988.49
2017-07-26T01:35:29.996Z,988.52
2017-07-26T01:36:30.017Z,988.5
2017-07-26T01:37:30.040Z,988.48
2017-07-26T01:38:30.063Z,988.53
2017-07-26T01:39:30.087Z,988.52
2017-07-26T01:40:30.106Z,988.52
2017-07-26T01:41:30.150Z,988.51
2017-07-26T01:42:30.158Z,988.49
2017-07-26T01:43:30.174Z,988.52
2017-07-26T01:44:30.219Z,988.51
2017-07-26T01:45:30.243Z,988.49
2017-07-26T01:46:30.306Z,988.51
2017-07-26T01:47:30.261Z,988.5
2017-07-26T01:48:30.283Z,988.53
2017-07-26T01:49:30.307Z,988.51
2017-07-26T01:50:30.368Z,988.48
2017-07-26T01:51:30.351Z,988.49
2017-07-26T01:52:30.373Z,988.51
2017-07-26T01:53:30.395Z,988.46
2017-07-26T01:54:30.454Z,988.43
2017-07-26T01:55:30.472Z,988.45
2017-07-26T01:56:30.461Z,988.43
2017-07-26T01:57:30.484Z,988.38
2017-07-26T01:58:30.505Z,988.39
2017-07-26T01:59:30.528Z,988.42
2017-07-26T02:00:30.550Z,988.37
2017-07-26T02:01:30.572Z,988.38
2017-07-26T02:02:30.644Z,988.4
2017-07-26T02:03:30.617Z,988.37
2017-07-26T02:04:30.639Z,988.41
2017-07-26T02:05:30.660Z,988.35
2017-07-26T02:06:30.684Z,988.39
2017-07-26T02:07:30.704Z,988.36
2017-07-26T02:08:30.727Z,988.38
2017-07-26T02:09:30.750Z,988.37
2017-07-26T02:10:30.772Z,988.39
2017-07-26T02:11:30.796Z,988.37
2017-07-26T02:12:30.815Z,988.37
2017-07-26T02:13:30.838Z,988.38
2017-07-26T02:14:30.861Z,988.38
2017-07-26T02:15:30.883Z,988.37
2017-07-26T02:16:30.904Z,988.39
2017-07-26T02:17:30.925Z,988.39
2017-07-26T02:18:30.955Z,988.4
2017-07-26T02:19:31.066Z,988.37
2017-07-26T02:20:30.995Z,988.36
2017-07-26T02:21:31.016Z,988.39
2017-07-26T02:22:31.040Z,988.36
2017-07-26T02:23:31.061Z,988.39
2017-07-26T02:24:31.081Z,988.35
2017-07-26T02:25:31.104Z,988.4
2017-07-26T02:26:31.128Z,988.39
2017-07-26T02:27:31.151Z,988.4
2017-07-26T02:28:31.171Z,988.36
2017-07-26T02:29:31.193Z,988.37
2017-07-26T02:30:31.213Z,988.34
2017-07-26T02:31:31.242Z,988.36
2017-07-26T02:32:31.289Z,988.31
2017-07-26T02:33:31.283Z,988.31
2017-07-26T02:34:31.304Z,988.33
2017-07-26T02:35:31.357Z,988.35
2017-07-26T02:36:31.349Z,988.3
2017-07-26T02:37:31.370Z,988.32
2017-07-26T02:38:31.392Z,988.33
2017-07-26T02:39:31.414Z,988.3
2017-07-26T02:40:31.442Z,988.3
2017-07-26T02:41:31.458Z,988.31
2017-07-26T02:42:31.481Z,988.31
2017-07-26T02:43:31.503Z,988.32
2017-07-26T02:44:31.524Z,988.28
2017-07-26T02:45:31.547Z,988.28
2017-07-26T02:46:31.571Z,988.3
2017-07-26T02:47:31.593Z,988.29
2017-07-26T02:48:31.613Z,988.3
2017-07-26T02:49:31.634Z,988.26
2017-07-26T02:50:31.657Z,988.31
2017-07-26T02:51:31.681Z,988.32
2017-07-26T02:52:31.702Z,988.34
2017-07-26T02:53:31.725Z,988.3
2017-07-26T02:54:31.744Z,988.33
2017-07-26T02:55:31.768Z,988.34
2017-07-26T02:56:31.789Z,988.35
2017-07-26T02:57:31.813Z,988.31
2017-07-26T02:58:31.835Z,988.32
2017-07-26T02:59:31.856Z,988.31
2017-07-26T03:00:31.879Z,988.3
2017-07-26T03:01:31.900Z,988.32
2017-07-26T03:02:31.924Z,988.27
2017-07-26T03:03:31.944Z,988.3
2017-07-26T03:04:31.966Z,988.28
2017-07-26T03:05:31.988Z,988.28
2017-07-26T03:06:32.011Z,988.35
2017-07-26T03:07:32.035Z,988.3
2017-07-26T03:08:32.056Z,988.34
2017-07-26T03:09:32.078Z,988.34
2017-07-26T03:10:32.098Z,988.36
2017-07-26T03:11:32.123Z,988.37
2017-07-26T03:12:32.144Z,988.39
2017-07-26T03:13:32.166Z,988.39
2017-07-26T03:14:32.187Z,988.39
2017-07-26T03:15:32.208Z,988.37
2017-07-26T03:16:32.231Z,988.38
2017-07-26T03:17:32.254Z,988.32
2017-07-26T03:18:32.274Z,988.34
2017-07-26T03:19:32.297Z,988.37
2017-07-26T03:20:32.320Z,988.33
2017-07-26T03:21:32.345Z,988.36
2017-07-26T03:22:32.364Z,988.39
2017-07-26T03:23:32.386Z,988.4
2017-07-26T03:24:32.409Z,988.38
2017-07-26T03:25:32.429Z,988.4
2017-07-26T03:26:32.453Z,988.4
2017-07-26T03:27:32.474Z,988.4
2017-07-26T03:28:32.577Z,988.44
2017-07-26T03:29:32.515Z,988.44
2017-07-26T03:30:32.542Z,988.42
2017-07-26T03:31:32.563Z,988.39
2017-07-26T03:32:32.647Z,988.42
2017-07-26T03:33:32.605Z,988.4
2017-07-26T03:34:32.627Z,988.42
2017-07-26T03:35:32.650Z,988.4
2017-07-26T03:36:32.672Z,988.43
2017-07-26T03:37:32.694Z,988.4
2017-07-26T03:38:32.717Z,988.44
2017-07-26T03:39:32.739Z,988.44
2017-07-26T03:40:32.760Z,988.42
2017-07-26T03:41:32.783Z,988.4
2017-07-26T03:42:32.806Z,988.38
2017-07-26T03:43:32.827Z,988.42
2017-07-26T03:44:32.848Z,988.39
2017-07-26T03:45:32.871Z,988.35
2017-07-26T03:46:32.892Z,988.4
2017-07-26T03:47:32.916Z,988.39
2017-07-26T03:48:32.938Z,988.4
2017-07-26T03:49:32.965Z,988.41
2017-07-26T03:50:32.981Z,988.39
2017-07-26T03:51:33.004Z,988.41
2017-07-26T03:52:33.132Z,988.44
2017-07-26T03:53:33.263Z,988.38
2017-07-26T03:54:33.129Z,988.38
2017-07-26T03:55:33.130Z,988.35
2017-07-26T03:56:33.126Z,988.36
2017-07-26T03:57:33.259Z,988.29
2017-07-26T03:58:33.255Z,988.31
2017-07-26T03:59:33.276Z,988.29
2017-07-26T04:00:33.292Z,988.28
2017-07-26T04:01:33.227Z,988.29
2017-07-26T04:02:33.249Z,988.27
2017-07-26T04:03:33.269Z,988.27
2017-07-26T04:04:33.291Z,988.28
2017-07-26T04:05:33.311Z,988.29
2017-07-26T04:06:33.335Z,988.26
2017-07-26T04:07:33.356Z,988.26
2017-07-26T04:08:33.380Z,988.28
2017-07-26T04:09:33.400Z,988.27
2017-07-26T04:10:33.422Z,988.29
2017-07-26T04:11:33.444Z,988.24
2017-07-26T04:12:33.467Z,988.27
2017-07-26T04:13:33.487Z,988.31
2017-07-26T04:14:33.511Z,988.27
2017-07-26T04:15:33.535Z,988.26
2017-07-26T04:16:33.554Z,988.24
2017-07-26T04:17:33.576Z,988.27
2017-07-26T04:18:33.598Z,988.24
2017-07-26T04:19:33.619Z,988.23
2017-07-26T04:20:33.639Z,988.24
2017-07-26T04:21:33.664Z,988.25
2017-07-26T04:22:33.687Z,988.27
2017-07-26T04:23:33.709Z,988.3
2017-07-26T04:24:33.729Z,988.29
2017-07-26T04:25:33.751Z,988.32
2017-07-26T04:26:33.775Z,988.3
2017-07-26T04:27:33.796Z,988.31
2017-07-26T04:28:33.817Z,988.34
2017-07-26T04:29:33.839Z,988.34
2017-07-26T04:30:33.860Z,988.32
2017-07-26T04:31:33.882Z,988.3
2017-07-26T04:32:33.907Z,988.31
2017-07-26T04:33:33.933Z,988.33
2017-07-26T04:34:33.949Z,988.33
2017-07-26T04:35:33.971Z,988.33
2017-07-26T04:36:33.995Z,988.33
2017-07-26T04:37:34.016Z,988.34
2017-07-26T04:38:34.037Z,988.33
2017-07-26T04:39:34.060Z,988.32
2017-07-26T04:40:34.084Z,988.3
2017-07-26T04:41:34.104Z,988.3
2017-07-26T04:42:34.124Z,988.29
2017-07-26T04:43:34.148Z,988.32
2017-07-26T04:44:34.171Z,988.35
2017-07-26T04:45:34.193Z,988.31
2017-07-26T04:46:34.215Z,988.3
2017-07-26T04:47:34.237Z,988.34
2017-07-26T04:48:34.258Z,988.3
2017-07-26T04:49:34.278Z,988.32
2017-07-26T04:50:34.303Z,988.34
2017-07-26T04:51:34.325Z,988.35
2017-07-26T04:52:34.346Z,988.32
2017-07-26T04:53:34.368Z,988.37
2017-07-26T04:54:34.390Z,988.38
2017-07-26T04:55:34.413Z,988.44
2017-07-26T04:56:34.436Z,988.41
2017-07-26T04:57:34.458Z,988.44
2017-07-26T04:58:34.479Z,988.42
2017-07-26T04:59:34.502Z,988.46
2017-07-26T05:00:34.521Z,988.48
2017-07-26T05:01:34.545Z,988.43
2017-07-26T05:02:34.568Z,988.53
2017-07-26T05:03:34.589Z,988.54
2017-07-26T05:04:34.610Z,988.56
2017-07-26T05:05:34.632Z,988.55
2017-07-26T05:06:34.654Z,988.55
2017-07-26T05:07:34.676Z,988.57
2017-07-26T05:08:34.697Z,988.57
2017-07-26T05:09:34.721Z,988.61
2017-07-26T05:10:34.743Z,988.64
2017-07-26T05:11:34.766Z,988.66
2017-07-26T05:12:34.787Z,988.67
2017-07-26T05:13:34.814Z,988.66
2017-07-26T05:14:34.830Z,988.65
2017-07-26T05:15:34.858Z,988.63
2017-07-26T05:16:34.876Z,988.68
2017-07-26T05:17:34.897Z,988.68
2017-07-26T05:18:34.920Z,988.69
2017-07-26T05:19:34.940Z,988.7
2017-07-26T05:20:34.962Z,988.69
2017-07-26T05:21:34.986Z,988.71
2017-07-26T05:22:35.006Z,988.73
2017-07-26T05:23:35.029Z,988.71
2017-07-26T05:24:35.050Z,988.72
2017-07-26T05:25:35.074Z,988.7
2017-07-26T05:26:35.096Z,988.71
2017-07-26T05:27:35.119Z,988.72
2017-07-26T05:28:35.140Z,988.73
2017-07-26T05:29:35.165Z,988.76
2017-07-26T05:30:35.185Z,988.74
2017-07-26T05:31:35.206Z,988.78
2017-07-26T05:32:35.229Z,988.75
2017-07-26T05:33:35.251Z,988.79
2017-07-26T05:34:35.271Z,988.77
2017-07-26T05:35:35.297Z,988.74
2017-07-26T05:36:35.316Z,988.76
2017-07-26T05:37:35.340Z,988.76
2017-07-26T05:38:35.360Z,988.75
2017-07-26T05:39:35.381Z,988.76
2017-07-26T05:40:35.403Z,988.78
2017-07-26T05:41:35.427Z,988.76
2017-07-26T05:42:35.535Z,988.8
2017-07-26T05:43:35.477Z,988.8
2017-07-26T05:44:35.492Z,988.77
2017-07-26T05:45:35.514Z,988.8
2017-07-26T05:46:35.539Z,988.83
2017-07-26T05:47:35.560Z,988.9
2017-07-26T05:48:35.582Z,988.88
2017-07-26T05:49:35.606Z,988.92
2017-07-26T05:50:35.626Z,988.92
2017-07-26T05:51:35.649Z,988.92
2017-07-26T05:52:35.674Z,988.99
2017-07-26T05:53:35.692Z,988.97
2017-07-26T05:54:35.714Z,989.01
2017-07-26T05:55:35.822Z,988.99
2017-07-26T05:56:35.759Z,989
2017-07-26T05:57:35.783Z,989.02
2017-07-26T05:58:35.803Z,989.02
2017-07-26T05:59:35.827Z,989.1
2017-07-26T06:00:35.849Z,989.14
2017-07-26T06:01:35.870Z,989.13
2017-07-26T06:02:35.893Z,989.17
2017-07-26T06:03:35.915Z,989.17
2017-07-26T06:04:35.960Z,989.16
2017-07-26T06:05:35.962Z,989.2
2017-07-26T06:06:35.980Z,989.19
2017-07-26T06:07:36.087Z,989.21
2017-07-26T06:08:36.029Z,989.15
2017-07-26T06:09:36.049Z,989.17
2017-07-26T06:10:36.069Z,989.12
2017-07-26T06:11:36.095Z,989.17
2017-07-26T06:12:36.115Z,989.16
2017-07-26T06:13:36.137Z,989.18
2017-07-26T06:14:36.159Z,989.19
2017-07-26T06:15:36.182Z,989.19
2017-07-26T06:16:36.205Z,989.2
2017-07-26T06:17:36.227Z,989.16
2017-07-26T06:18:36.249Z,989.18
2017-07-26T06:19:36.272Z,989.18
2017-07-26T06:20:36.296Z,989.19
2017-07-26T06:21:36.319Z,989.21
2017-07-26T06:22:36.429Z,989.22
2017-07-26T06:23:36.363Z,989.25
2017-07-26T06:24:36.382Z,989.28
2017-07-26T06:25:36.406Z,989.26
2017-07-26T06:26:36.431Z,989.32
2017-07-26T06:27:36.454Z,989.29
2017-07-26T06:28:36.473Z,989.27
2017-07-26T06:29:36.494Z,989.31
2017-07-26T06:30:36.518Z,989.28
2017-07-26T06:31:36.544Z,989.31
2017-07-26T06:32:36.564Z,989.31
2017-07-26T06:33:36.585Z,989.35
2017-07-26T06:34:36.609Z,989.35
2017-07-26T06:35:36.631Z,989.42
2017-07-26T06:36:36.654Z,989.43
2017-07-26T06:37:36.678Z,989.44
2017-07-26T06:38:36.699Z,989.44
2017-07-26T06:39:36.725Z,989.47
2017-07-26T06:40:36.743Z,989.47
2017-07-26T06:41:36.768Z,989.5
2017-07-26T06:42:36.792Z,989.52
2017-07-26T06:43:37.014Z,989.49
2017-07-26T06:44:36.836Z,989.51
2017-07-26T06:45:36.859Z,989.48
2017-07-26T06:46:36.880Z,989.5
2017-07-26T06:47:36.904Z,989.49
2017-07-26T06:48:36.929Z,989.51
2017-07-26T06:49:36.951Z,989.51
2017-07-26T06:50:36.972Z,989.5
2017-07-26T06:51:36.995Z,989.53
2017-07-26T06:52:37.017Z,989.52
2017-07-26T06:53:37.041Z,989.54
2017-07-26T06:54:37.062Z,989.57
2017-07-26T06:55:37.086Z,989.57
2017-07-26T06:56:37.109Z,989.58
2017-07-26T06:57:37.131Z,989.58
2017-07-26T06:58:37.158Z,989.55
2017-07-26T06:59:37.176Z,989.58
2017-07-26T07:00:37.200Z,989.61
2017-07-26T07:01:37.222Z,989.62
2017-07-26T07:02:37.246Z,989.64
2017-07-26T07:03:37.269Z,989.65
2017-07-26T07:04:37.289Z,989.69
2017-07-26T07:05:37.315Z,989.75
2017-07-26T07:06:37.336Z,989.72
2017-07-26T07:07:37.357Z,989.7
2017-07-26T07:08:37.382Z,989.74
2017-07-26T07:09:37.405Z,989.74
2017-07-26T07:10:37.429Z,989.76
2017-07-26T07:11:37.450Z,989.73
2017-07-26T07:12:37.474Z,989.75
2017-07-26T07:13:37.495Z,989.74
2017-07-26T07:14:37.519Z,989.73
2017-07-26T07:15:37.541Z,989.73
2017-07-26T07:16:37.564Z,989.7
2017-07-26T07:17:37.588Z,989.71
2017-07-26T07:18:37.613Z,989.68
2017-07-26T07:19:37.633Z,989.67
2017-07-26T07:20:37.655Z,989.69
2017-07-26T07:21:37.681Z,989.68
2017-07-26T07:22:37.701Z,989.72
2017-07-26T07:23:37.723Z,989.74
2017-07-26T07:24:37.749Z,989.73
2017-07-26T07:25:37.772Z,989.74
2017-07-26T07:26:37.793Z,989.76
2017-07-26T07:27:37.818Z,989.76
2017-07-26T07:28:37.838Z,989.8
2017-07-26T07:29:37.864Z,989.79
2017-07-26T07:30:37.885Z,989.85
2017-07-26T07:31:37.916Z,989.85
2017-07-26T07:32:37.933Z,989.84
2017-07-26T07:33:37.956Z,989.85
2017-07-26T07:34:37.979Z,989.89
2017-07-26T07:35:38.002Z,989.89
2017-07-26T07:36:38.025Z,989.88
2017-07-26T07:37:38.045Z,989.9
2017-07-26T07:38:38.071Z,989.9
2017-07-26T07:39:38.098Z,989.88
2017-07-26T07:40:38.124Z,989.93
2017-07-26T07:41:38.140Z,989.89
2017-07-26T07:42:38.166Z,989.9
2017-07-26T07:43:38.188Z,989.94
2017-07-26T07:44:38.210Z,989.94
2017-07-26T07:45:38.234Z,989.97
2017-07-26T07:46:38.258Z,989.98
2017-07-26T07:47:38.280Z,989.98
2017-07-26T07:48:38.304Z,989.99
2017-07-26T07:49:38.326Z,989.94
2017-07-26T07:50:38.350Z,989.97
2017-07-26T07:51:38.375Z,989.96
2017-07-26T07:52:38.397Z,989.97
2017-07-26T07:53:38.419Z,989.95
2017-07-26T07:54:38.443Z,989.95
2017-07-26T07:55:38.465Z,989.98
2017-07-26T07:56:38.488Z,989.98
2017-07-26T07:57:38.514Z,990
2017-07-26T07:58:38.536Z,990
2017-07-26T07:59:38.560Z,990.02
2017-07-26T08:00:38.584Z,990.02
2017-07-26T08:01:38.606Z,990.06
2017-07-26T08:02:38.631Z,990.02
2017-07-26T08:03:38.653Z,990.06
2017-07-26T08:04:38.674Z,990.05
2017-07-26T08:05:38.699Z,990.01
2017-07-26T08:06:38.724Z,990.07
2017-07-26T08:07:38.746Z,990.05
2017-07-26T08:08:38.777Z,990.06
2017-07-26T08:09:38.794Z,990.05
2017-07-26T08:10:38.816Z,990.04
2017-07-26T08:11:38.840Z,990.05
2017-07-26T08:12:38.863Z,990.07
2017-07-26T08:13:38.932Z,990.07
2017-07-26T08:14:38.908Z,990.09
2017-07-26T08:15:38.934Z,990.08
2017-07-26T08:16:38.958Z,990.13
2017-07-26T08:17:38.982Z,990.13
2017-07-26T08:18:39.003Z,990.15
2017-07-26T08:19:39.078Z,990.14
2017-07-26T08:20:39.052Z,990.14
2017-07-26T08:21:39.074Z,990.13
2017-07-26T08:22:39.098Z,990.1
2017-07-26T08:23:39.120Z,990.11
2017-07-26T08:24:39.145Z,990.11
2017-07-26T08:25:39.169Z,990.12
2017-07-26T08:26:39.189Z,990.1
2017-07-26T08:27:39.216Z,990.11
2017-07-26T08:28:39.238Z,990.12
2017-07-26T08:29:39.259Z,990.08
2017-07-26T08:30:39.284Z,990.08
2017-07-26T08:31:39.308Z,990.09
2017-07-26T08:32:39.330Z,990.07
2017-07-26T08:33:39.458Z,990.1
2017-07-26T08:34:39.379Z,990.1
2017-07-26T08:35:39.403Z,990.12
2017-07-26T08:36:39.429Z,990.11
2017-07-26T08:37:39.449Z,990.12
2017-07-26T08:38:39.473Z,990.12
2017-07-26T08:39:39.496Z,990.11
2017-07-26T08:40:39.520Z,990.12
2017-07-26T08:41:39.545Z,990.12
2017-07-26T08:42:39.569Z,990.08
2017-07-26T08:43:39.593Z,990.12
2017-07-26T08:44:39.615Z,990.09
2017-07-26T08:45:39.653Z,990.13
2017-07-26T08:46:39.662Z,990.16
2017-07-26T08:47:39.874Z,990.12
2017-07-26T08:48:39.708Z,990.08
2017-07-26T08:49:39.734Z,990.15
2017-07-26T08:50:39.753Z,990.12
2017-07-26T08:51:39.779Z,990.08
2017-07-26T08:52:39.802Z,990.1
2017-07-26T08:53:39.826Z,990.15
2017-07-26T08:54:39.851Z,990.14
2017-07-26T08:55:39.874Z,990.17
2017-07-26T08:56:39.899Z,990.16
2017-07-26T08:57:39.923Z,990.19
2017-07-26T08:58:39.943Z,990.21
2017-07-26T08:59:39.966Z,990.22
2017-07-26T09:00:39.990Z,990.24
2017-07-26T09:01:40.015Z,990.23
2017-07-26T09:02:40.037Z,990.26
2017-07-26T09:03:40.061Z,990.28
2017-07-26T09:04:40.087Z,990.34
2017-07-26T09:05:40.108Z,990.31
2017-07-26T09:06:40.133Z,990.34
2017-07-26T09:07:40.155Z,990.32
2017-07-26T09:08:40.181Z,990.32
2017-07-26T09:09:40.205Z,990.32
2017-07-26T09:10:40.226Z,990.34
2017-07-26T09:11:40.249Z,990.33
2017-07-26T09:12:40.273Z,990.32
2017-07-26T09:13:40.302Z,990.33
2017-07-26T09:14:40.321Z,990.34
2017-07-26T09:15:40.344Z,990.35
2017-07-26T09:16:40.401Z,990.34
2017-07-26T09:17:40.392Z,990.35
2017-07-26T09:18:40.415Z,990.39
2017-07-26T09:19:40.437Z,990.38
2017-07-26T09:20:40.461Z,990.37
2017-07-26T09:21:40.485Z,990.41
2017-07-26T09:22:40.508Z,990.45
2017-07-26T09:23:40.532Z,990.41
2017-07-26T09:24:40.555Z,990.43
2017-07-26T09:25:40.579Z,990.48
2017-07-26T09:26:40.603Z,990.43
2017-07-26T09:27:40.626Z,990.42
2017-07-26T09:28:40.748Z,990.44
2017-07-26T09:29:40.673Z,990.45
2017-07-26T09:30:40.698Z,990.43
2017-07-26T09:31:40.719Z,990.43
2017-07-26T09:32:40.742Z,990.45
2017-07-26T09:33:40.778Z,990.44
2017-07-26T09:34:40.789Z,990.47
2017-07-26T09:35:40.813Z,990.5
2017-07-26T09:36:40.836Z,990.47
2017-07-26T09:37:40.863Z,990.42
2017-07-26T09:38:40.883Z,990.44
2017-07-26T09:39:40.908Z,990.49
2017-07-26T09:40:40.928Z,990.51
2017-07-26T09:41:40.953Z,990.51
2017-07-26T09:42:40.977Z,990.49
2017-07-26T09:43:41.000Z,990.51
2017-07-26T09:44:41.024Z,990.51
2017-07-26T09:45:41.052Z,990.52
2017-07-26T09:46:41.073Z,990.57
2017-07-26T09:47:41.167Z,990.57
2017-07-26T09:48:41.126Z,990.56
2017-07-26T09:49:41.140Z,990.57
2017-07-26T09:50:41.165Z,990.57
2017-07-26T09:51:41.188Z,990.55
2017-07-26T09:52:41.211Z,990.55
2017-07-26T09:53:41.234Z,990.58
2017-07-26T09:54:41.258Z,990.57
2017-07-26T09:55:41.283Z,990.57
2017-07-26T09:56:41.303Z,990.58
2017-07-26T09:57:41.327Z,990.66
2017-07-26T09:58:41.353Z,990.64
2017-07-26T09:59:41.377Z,990.6
2017-07-26T10:00:41.399Z,990.66
2017-07-26T10:01:41.421Z,990.65
2017-07-26T10:02:41.446Z,990.63
2017-07-26T10:03:41.468Z,990.68
2017-07-26T10:04:41.491Z,990.71
2017-07-26T10:05:41.514Z,990.7
2017-07-26T10:06:41.537Z,990.73
2017-07-26T10:07:41.559Z,990.73
2017-07-26T10:08:41.583Z,990.73
2017-07-26T10:09:41.607Z,990.78
2017-07-26T10:10:41.634Z,990.76
2017-07-26T10:11:41.655Z,990.79
2017-07-26T10:12:41.678Z,990.78
2017-07-26T10:13:41.700Z,990.82
2017-07-26T10:14:41.724Z,990.84
2017-07-26T10:15:41.747Z,990.85
2017-07-26T10:16:41.772Z,990.86
2017-07-26T10:17:41.806Z,990.86
2017-07-26T10:18:41.820Z,990.92
2017-07-26T10:19:41.857Z,990.93
2017-07-26T10:20:41.871Z,990.95
2017-07-26T10:21:41.890Z,990.92
2017-07-26T10:22:41.911Z,990.95
2017-07-26T10:23:41.937Z,990.95
2017-07-26T10:24:41.963Z,990.99
2017-07-26T10:25:41.981Z,991.01
2017-07-26T10:26:42.006Z,990.95
2017-07-26T10:27:42.028Z,991.01
2017-07-26T10:28:42.072Z,991.03
2017-07-26T10:29:42.075Z,991.04
2017-07-26T10:30:42.100Z,991.07
2017-07-26T10:31:42.302Z,991.06
2017-07-26T10:32:42.146Z,991.03
2017-07-26T10:33:42.170Z,991.08
2017-07-26T10:34:42.193Z,991.07
2017-07-26T10:35:42.216Z,991.08
2017-07-26T10:36:42.239Z,991.11
2017-07-26T10:37:42.262Z,991.18
2017-07-26T10:38:42.285Z,991.15
2017-07-26T10:39:42.309Z,991.27
2017-07-26T10:40:42.332Z,991.18
2017-07-26T10:41:42.689Z,991.21
2017-07-26T10:42:42.380Z,991.19
2017-07-26T10:43:42.408Z,991.29
2017-07-26T10:44:42.425Z,991.28
2017-07-26T10:45:42.457Z,991.26
2017-07-26T10:46:42.471Z,991.31
2017-07-26T10:47:42.495Z,991.3
2017-07-26T10:48:42.523Z,991.34
2017-07-26T10:49:42.543Z,991.38
2017-07-26T10:50:42.566Z,991.34
2017-07-26T10:51:42.589Z,991.33
2017-07-26T10:52:42.701Z,991.39
2017-07-26T10:53:42.635Z,991.41
2017-07-26T10:54:42.780Z,991.4
2017-07-26T10:55:42.779Z,991.49
2017-07-26T10:56:42.945Z,991.44
2017-07-26T10:57:42.729Z,991.45
2017-07-26T10:58:42.753Z,991.5
2017-07-26T10:59:42.776Z,991.5
2017-07-26T11:00:42.799Z,991.51
2017-07-26T11:01:42.824Z,991.56
2017-07-26T11:02:42.846Z,991.48
2017-07-26T11:03:42.869Z,991.46
2017-07-26T11:04:42.892Z,991.5
2017-07-26T11:05:42.917Z,991.49
2017-07-26T11:06:42.948Z,991.55
2017-07-26T11:07:42.963Z,991.53
2017-07-26T11:08:42.987Z,991.56
2017-07-26T11:09:43.009Z,991.56
2017-07-26T11:10:43.036Z,991.5
2017-07-26T11:11:43.058Z,991.55
2017-07-26T11:12:43.080Z,991.56
2017-07-26T11:13:43.104Z,991.54
2017-07-26T11:14:43.128Z,991.64
2017-07-26T11:15:43.150Z,991.6
2017-07-26T11:16:43.174Z,991.64
2017-07-26T11:17:43.200Z,991.65
2017-07-26T11:18:43.221Z,991.64
2017-07-26T11:19:43.246Z,991.68
2017-07-26T11:20:43.268Z,991.7
2017-07-26T11:21:43.293Z,991.68
2017-07-26T11:22:43.313Z,991.65
2017-07-26T11:23:43.339Z,991.65
2017-07-26T11:24:43.364Z,991.69
2017-07-26T11:25:43.385Z,991.7
2017-07-26T11:26:43.409Z,991.73
2017-07-26T11:27:43.433Z,991.71
2017-07-26T11:28:43.459Z,991.76
2017-07-26T11:29:43.479Z,991.74
2017-07-26T11:30:43.503Z,991.76
2017-07-26T11:31:43.525Z,991.74
2017-07-26T11:32:43.549Z,991.77
2017-07-26T11:33:43.573Z,991.78
2017-07-26T11:34:43.597Z,991.77
2017-07-26T11:35:43.641Z,991.83
2017-07-26T11:36:43.642Z,991.82
2017-07-26T11:37:43.667Z,991.8
2017-07-26T11:38:43.690Z,991.82
2017-07-26T11:39:43.715Z,991.75
2017-07-26T11:40:43.737Z,991.81
2017-07-26T11:41:43.762Z,991.79
2017-07-26T11:42:43.784Z,991.81
2017-07-26T11:43:43.807Z,991.84
2017-07-26T11:44:43.831Z,991.79
2017-07-26T11:45:43.855Z,991.81
2017-07-26T11:46:43.881Z,991.83
2017-07-26T11:47:43.902Z,991.96
2017-07-26T11:48:43.925Z,991.9
2017-07-26T11:49:43.952Z,991.97
2017-07-26T11:50:43.972Z,991.97
2017-07-26T11:51:43.995Z,991.97
2017-07-26T11:52:44.019Z,992
2017-07-26T11:53:44.042Z,991.94
2017-07-26T11:54:44.071Z,991.98
2017-07-26T11:55:44.090Z,991.98
2017-07-26T11:56:44.115Z,992.01
2017-07-26T11:57:44.135Z,992.03
2017-07-26T11:58:44.159Z,992.02
2017-07-26T11:59:44.183Z,992.04
2017-07-26T12:00:44.205Z,992.09
2017-07-26T12:01:44.229Z,992.05
2017-07-26T12:02:44.251Z,992.1
2017-07-26T12:03:44.279Z,992.05
2017-07-26T12:04:44.299Z,992.06
2017-07-26T12:05:44.333Z,992.09
2017-07-26T12:06:44.548Z,992.14
2017-07-26T12:07:44.369Z,992.11
2017-07-26T12:08:44.393Z,992.14
2017-07-26T12:09:44.417Z,992.24
2017-07-26T12:10:44.442Z,992.18
2017-07-26T12:11:44.462Z,992.21
2017-07-26T12:12:44.486Z,992.25
2017-07-26T12:13:44.509Z,992.27
2017-07-26T12:14:44.531Z,992.26
2017-07-26T12:15:44.556Z,992.29
2017-07-26T12:16:44.579Z,992.32
2017-07-26T12:17:44.601Z,992.33
2017-07-26T12:18:44.625Z,992.31
2017-07-26T12:19:44.648Z,992.28
2017-07-26T12:20:44.672Z,992.29
2017-07-26T12:21:44.696Z,992.36
2017-07-26T12:22:44.718Z,992.34
2017-07-26T12:23:44.741Z,992.3
2017-07-26T12:24:44.763Z,992.33
2017-07-26T12:25:44.789Z,992.4
2017-07-26T12:26:44.811Z,992.4
2017-07-26T12:27:44.859Z,992.39
2017-07-26T12:28:44.857Z,992.43
2017-07-26T12:29:44.881Z,992.46
2017-07-26T12:30:44.905Z,992.5
2017-07-26T12:31:44.927Z,992.44